Observation data for Northwest Lubbock on 08/14/2020      Previous  Date       Current Mesonet Observations  Soil Data  Daily Summary Page  Observations in Plain Language
KLBW 140500Z 19008KT 32/09 A2998 RMK A01 T03200088  RH  025%=      5-min Rain = 0
KLBW 140505Z 19009KT 32/09 A2998 RMK A01 T03200088  RH  025%=      5-min Rain = 0
KLBW 140510Z 19008G13KT 32/09 A2998 RMK A01 T03220087  RH  024%=      5-min Rain = 0
KLBW 140515Z 20008KT 32/09 A2998 RMK A01 T03190088  RH  025%=      5-min Rain = 0
KLBW 140520Z 20007KT 32/09 A2998 RMK A01 T03170088  RH  025%=      5-min Rain = 0
KLBW 140525Z 21008KT 31/09 A2998 RMK A01 T03140088  RH  025%=      5-min Rain = 0
KLBW 140530Z 21008KT 31/09 A2998 RMK A01 T03140088  RH  025%=      5-min Rain = 0
KLBW 140535Z 21009KT 31/09 A2998 RMK A01 T03130089  RH  026%=      5-min Rain = 0
KLBW 140540Z 22008KT 31/09 A2998 RMK A01 T03090090  RH  026%=      5-min Rain = 0
KLBW 140545Z 22007KT 31/09 A2999 RMK A01 T03060090  RH  027%=      5-min Rain = 0
KLBW 140550Z 22007G12KT 30/09 A2999 RMK A01 T03040090  RH  027%=      5-min Rain = 0
KLBW 140555Z 22008KT 30/09 A2998 RMK A01 T03040090  RH  027%=      5-min Rain = 0
KLBW 140600Z 22008KT 30/09 A2998 RMK A01 T03030090  RH  027%=      5-min Rain = 0
KLBW 140605Z 22008KT 30/09 A2998 RMK A01 T03040090  RH  027%=      5-min Rain = 0
KLBW 140610Z 22009KT 31/09 A2999 RMK A01 T03050090  RH  027%=      5-min Rain = 0
KLBW 140615Z 22009KT 31/09 A2999 RMK A01 T03060091  RH  027%=      5-min Rain = 0
KLBW 140620Z 22009KT 31/09 A2998 RMK A01 T03060091  RH  027%=      5-min Rain = 0
KLBW 140625Z 21009KT 30/09 A2998 RMK A01 T03040091  RH  027%=      5-min Rain = 0
KLBW 140630Z 21008KT 30/09 A2999 RMK A01 T03030091  RH  028%=      5-min Rain = 0
KLBW 140635Z 21009KT 30/09 A2999 RMK A01 T03020092  RH  028%=      5-min Rain = 0
KLBW 140640Z 21009G15KT 30/09 A2999 RMK A01 T03010091  RH  028%=      5-min Rain = 0
KLBW 140645Z 21010KT 30/09 A2999 RMK A01 T03030091  RH  028%=      5-min Rain = 0
KLBW 140650Z 21009KT 30/09 A2999 RMK A01 T03010091  RH  028%=      5-min Rain = 0
KLBW 140655Z 20009G14KT 30/09 A2999 RMK A01 T02990092  RH  028%=      5-min Rain = 0
KLBW 140700Z 20010KT 30/09 A2999 RMK A01 T03000092  RH  028%=      5-min Rain = 0
KLBW 140705Z 21010KT 30/09 A2999 RMK A01 T02990093  RH  029%=      5-min Rain = 0
KLBW 140710Z 21011KT 30/09 A2999 RMK A01 T02970093  RH  029%=      5-min Rain = 0
KLBW 140715Z 21010KT 30/09 A2999 RMK A01 T02960094  RH  029%=      5-min Rain = 0
KLBW 140720Z 21009KT 29/09 A2999 RMK A01 T02940094  RH  030%=      5-min Rain = 0
KLBW 140725Z 21009KT 29/10 A2999 RMK A01 T02910095  RH  030%=      5-min Rain = 0
KLBW 140730Z 21010G15KT 29/10 A2999 RMK A01 T02920095  RH  030%=      5-min Rain = 0
KLBW 140735Z 21010KT 29/10 A2999 RMK A01 T02900095  RH  031%=      5-min Rain = 0
KLBW 140740Z 21010G15KT 29/10 A2999 RMK A01 T02880096  RH  031%=      5-min Rain = 0
KLBW 140745Z 22010KT 29/10 A2999 RMK A01 T02870097  RH  032%=      5-min Rain = 0
KLBW 140750Z 21011KT 29/10 A2999 RMK A01 T02860098  RH  032%=      5-min Rain = 0
KLBW 140755Z 21010G15KT 29/10 A2999 RMK A01 T02860098  RH  032%=      5-min Rain = 0
KLBW 140800Z 21010KT 29/10 A2999 RMK A01 T02850099  RH  032%=      5-min Rain = 0
KLBW 140805Z 21010KT 29/10 A2999 RMK A01 T02850099  RH  033%=      5-min Rain = 0
KLBW 140810Z 21011KT 28/10 A2999 RMK A01 T02840100  RH  033%=      5-min Rain = 0
KLBW 140815Z 21010KT 28/10 A2999 RMK A01 T02840100  RH  033%=      5-min Rain = 0
KLBW 140820Z 21009G14KT 28/10 A2999 RMK A01 T02820100  RH  033%=      5-min Rain = 0
KLBW 140825Z 22012G17KT 28/10 A2999 RMK A01 T02830100  RH  033%=      5-min Rain = 0
KLBW 140830Z 22012G17KT 28/10 A2999 RMK A01 T02830101  RH  033%=      5-min Rain = 0
KLBW 140835Z 22012KT 28/10 A2999 RMK A01 T02820101  RH  033%=      5-min Rain = 0
KLBW 140840Z 22012KT 28/10 A2999 RMK A01 T02810101  RH  034%=      5-min Rain = 0
KLBW 140845Z 22011G17KT 28/10 A2999 RMK A01 T02800101  RH  034%=      5-min Rain = 0
KLBW 140850Z 22011G16KT 28/10 A2999 RMK A01 T02790102  RH  034%=      5-min Rain = 0
KLBW 140855Z 22011G17KT 28/10 A2999 RMK A01 T02780102  RH  034%=      5-min Rain = 0
KLBW 140900Z 22010G16KT 28/10 A2999 RMK A01 T02780102  RH  034%=      5-min Rain = 0
KLBW 140905Z 22010G17KT 28/10 A2999 RMK A01 T02780102  RH  034%=      5-min Rain = 0
KLBW 140910Z 23008KT 28/10 A30 RMK A01 T02770102  RH  035%=      5-min Rain = 0
KLBW 140915Z 24009KT 28/10 A30 RMK A01 T02770102  RH  035%=      5-min Rain = 0
KLBW 140920Z 24008G13KT 28/10 A30 RMK A01 T02750102  RH  035%=      5-min Rain = 0
KLBW 140925Z 24008KT 27/10 A30 RMK A01 T02730102  RH  035%=      5-min Rain = 0
KLBW 140930Z 24007KT 27/10 A30 RMK A01 T02720102  RH  036%=      5-min Rain = 0
KLBW 140935Z 24008KT 27/10 A30 RMK A01 T02720102  RH  036%=      5-min Rain = 0
KLBW 140940Z 24007KT 27/10 A30 RMK A01 T02720103  RH  036%=      5-min Rain = 0
KLBW 140945Z 24007KT 27/10 A30 RMK A01 T02720104  RH  036%=      5-min Rain = 0
KLBW 140950Z 24007KT 27/11 A30 RMK A01 T02730105  RH  036%=      5-min Rain = 0
KLBW 140955Z 23008KT 27/11 A30 RMK A01 T02720106  RH  036%=      5-min Rain = 0
KLBW 141000Z 22007KT 27/11 A30 RMK A01 T02730107  RH  037%=      5-min Rain = 0
KLBW 141005Z 22007KT 27/11 A30 RMK A01 T02720107  RH  037%=      5-min Rain = 0
KLBW 141010Z 22007KT 27/11 A30 RMK A01 T02710108  RH  037%=      5-min Rain = 0
KLBW 141015Z 23007KT 27/11 A30 RMK A01 T02690109  RH  038%=      5-min Rain = 0
KLBW 141020Z 23007KT 27/11 A30 RMK A01 T02710109  RH  038%=      5-min Rain = 0
KLBW 141025Z 23007KT 27/11 A3001 RMK A01 T02700110  RH  038%=      5-min Rain = 0
KLBW 141030Z 22008KT 27/11 A3001 RMK A01 T02710111  RH  038%=      5-min Rain = 0
KLBW 141035Z 22008KT 27/11 A30 RMK A01 T02710111  RH  038%=      5-min Rain = 0
KLBW 141040Z 22008KT 27/11 A30 RMK A01 T02710112  RH  038%=      5-min Rain = 0
KLBW 141045Z 22007KT 27/11 A3001 RMK A01 T02710113  RH  039%=      5-min Rain = 0
KLBW 141050Z 22007KT 27/11 A30 RMK A01 T02700114  RH  039%=      5-min Rain = 0
KLBW 141055Z 23007KT 27/12 A3001 RMK A01 T02700115  RH  039%=      5-min Rain = 0
KLBW 141100Z 23007KT 27/12 A3001 RMK A01 T02700116  RH  040%=      5-min Rain = 0
KLBW 141105Z 22008KT 27/12 A30 RMK A01 T02710116  RH  039%=      5-min Rain = 0
KLBW 141110Z 22008KT 27/12 A30 RMK A01 T02710117  RH  040%=      5-min Rain = 0
KLBW 141115Z 22008KT 27/12 A30 RMK A01 T02710117  RH  040%=      5-min Rain = 0
KLBW 141120Z 22008KT 27/12 A30 RMK A01 T02710118  RH  040%=      5-min Rain = 0
KLBW 141125Z 22008KT 27/12 A30 RMK A01 T02700117  RH  040%=      5-min Rain = 0
KLBW 141130Z 22008G13KT 27/12 A3001 RMK A01 T02690117  RH  040%=      5-min Rain = 0
KLBW 141135Z 22007KT 27/12 A3001 RMK A01 T02680118  RH  041%=      5-min Rain = 0
KLBW 141140Z 22008KT 27/12 A3001 RMK A01 T02670117  RH  041%=      5-min Rain = 0
KLBW 141145Z 23008KT 27/12 A3001 RMK A01 T02670118  RH  041%=      5-min Rain = 0
KLBW 141150Z 22007KT 27/12 A3001 RMK A01 T02650118  RH  041%=      5-min Rain = 0
KLBW 141155Z 23007KT 26/12 A3001 RMK A01 T02640118  RH  042%=      5-min Rain = 0
KLBW 141200Z 23007KT 26/12 A3002 RMK A01 T02640118  RH  042%=      5-min Rain = 0
KLBW 141205Z 23007KT 26/12 A3002 RMK A01 T02630118  RH  042%=      5-min Rain = 0
KLBW 141210Z 22007KT 26/12 A3001 RMK A01 T02630118  RH  042%=      5-min Rain = 0
KLBW 141215Z 22006KT 26/12 A3002 RMK A01 T02620119  RH  042%=      5-min Rain = 0
KLBW 141220Z 23006KT 26/12 A3002 RMK A01 T02620119  RH  043%=      5-min Rain = 0
KLBW 141225Z 23007KT 26/12 A3002 RMK A01 T02630120  RH  042%=      5-min Rain = 0
KLBW 141230Z 23007KT 27/12 A3002 RMK A01 T02650120  RH  042%=      5-min Rain = 0
KLBW 141235Z 22007KT 27/12 A3002 RMK A01 T02660121  RH  042%=      5-min Rain = 0
KLBW 141240Z 23007KT 27/12 A3002 RMK A01 T02660121  RH  042%=      5-min Rain = 0
KLBW 141245Z 23006KT 26/12 A3002 RMK A01 T02640122  RH  043%=      5-min Rain = 0
KLBW 141250Z 22006KT 26/12 A3002 RMK A01 T02630122  RH  043%=      5-min Rain = 0
KLBW 141255Z 22007KT 26/12 A3002 RMK A01 T02630122  RH  043%=      5-min Rain = 0
KLBW 141300Z 22007KT 26/12 A3002 RMK A01 T02640122  RH  043%=      5-min Rain = 0
KLBW 141305Z 22007KT 27/12 A3002 RMK A01 T02650123  RH  043%=      5-min Rain = 0
KLBW 141310Z 22007KT 27/12 A3002 RMK A01 T02660123  RH  043%=      5-min Rain = 0
KLBW 141315Z 23007KT 27/12 A3002 RMK A01 T02680124  RH  042%=      5-min Rain = 0
KLBW 141320Z 23007KT 27/12 A3002 RMK A01 T02690124  RH  042%=      5-min Rain = 0
KLBW 141325Z 23006KT 27/13 A3002 RMK A01 T02710126  RH  042%=      5-min Rain = 0
KLBW 141330Z 23006KT 27/13 A3002 RMK A01 T02730127  RH  042%=      5-min Rain = 0
KLBW 141335Z 23006KT 28/13 A3002 RMK A01 T02760128  RH  042%=      5-min Rain = 0
KLBW 141340Z 23006KT 28/13 A3002 RMK A01 T02810129  RH  041%=      5-min Rain = 0
KLBW 141345Z 23007KT 28/13 A3003 RMK A01 T02840130  RH  040%=      5-min Rain = 0
KLBW 141350Z 24006KT 29/13 A3003 RMK A01 T02880131  RH  040%=      5-min Rain = 0
KLBW 141355Z 26007KT 29/13 A3003 RMK A01 T02910132  RH  039%=      5-min Rain = 0
KLBW 141400Z 25007G13KT 29/13 A3003 RMK A01 T02940132  RH  038%=      5-min Rain = 0
KLBW 141405Z 26006KT 30/13 A3003 RMK A01 T02980134  RH  038%=      5-min Rain = 0
KLBW 141410Z 26007KT 30/13 A3003 RMK A01 T02980133  RH  038%=      5-min Rain = 0
KLBW 141415Z 26006G11KT 30/13 A3003 RMK A01 T02990134  RH  038%=      5-min Rain = 0
KLBW 141420Z 26006KT 30/14 A3003 RMK A01 T03020135  RH  038%=      5-min Rain = 0
KLBW 141425Z 26008KT 30/13 A3003 RMK A01 T02970131  RH  038%=      5-min Rain = 0
KLBW 141430Z 25005KT 29/13 A3004 RMK A01 T02910133  RH  039%=      5-min Rain = 0
KLBW 141435Z 27007KT 29/13 A3004 RMK A01 T02870132  RH  040%=      5-min Rain = 0
KLBW 141440Z 27007KT 29/13 A3004 RMK A01 T02850131  RH  040%=      5-min Rain = 0
KLBW 141445Z 26007KT 29/13 A3004 RMK A01 T02860132  RH  040%=      5-min Rain = 0
KLBW 141450Z 26005KT 29/14 A3004 RMK A01 T02890135  RH  040%=      5-min Rain = 0
KLBW 141455Z 27006KT 29/14 A3004 RMK A01 T02920136  RH  040%=      5-min Rain = 0
KLBW 141500Z 25006KT 29/14 A3004 RMK A01 T02920137  RH  040%=      5-min Rain = 0
KLBW 141505Z 25005KT 30/14 A3003 RMK A01 T03000140  RH  039%=      5-min Rain = 0
KLBW 141510Z 26009KT 32/14 A3003 RMK A01 T03150139  RH  036%=      5-min Rain = 0
KLBW 141515Z 26009KT 32/14 A3004 RMK A01 T03170136  RH  035%=      5-min Rain = 0
KLBW 141520Z 24008KT 32/14 A3004 RMK A01 T03220137  RH  034%=      5-min Rain = 0
KLBW 141525Z 24009G14KT 32/14 A3004 RMK A01 T03230137  RH  034%=      5-min Rain = 0
KLBW 141530Z 25008KT 33/14 A3003 RMK A01 T03290138  RH  033%=      5-min Rain = 0
KLBW 141535Z 26010G15KT 32/14 A3003 RMK A01 T03240135  RH  033%=      5-min Rain = 0
KLBW 141540Z 26011KT 32/13 A3003 RMK A01 T03200132  RH  033%=      5-min Rain = 0
KLBW 141545Z 25008G13KT 32/13 A3003 RMK A01 T03160133  RH  034%=      5-min Rain = 0
KLBW 141550Z 25008KT 31/13 A3003 RMK A01 T03120133  RH  035%=      5-min Rain = 0
KLBW 141555Z 27008KT 32/13 A3003 RMK A01 T03160132  RH  034%=      5-min Rain = 0
KLBW 141600Z 29008KT 32/13 A3003 RMK A01 T03230127  RH  032%=      5-min Rain = 0
KLBW 141605Z 28009KT 32/13 A3003 RMK A01 T03240125  RH  031%=      5-min Rain = 0
KLBW 141610Z 28009KT 33/13 A3003 RMK A01 T03290125  RH  030%=      5-min Rain = 0
KLBW 141615Z 28008KT 34/13 A3003 RMK A01 T03380125  RH  029%=      5-min Rain = 0
KLBW 141620Z 28006KT 35/13 A3002 RMK A01 T03450126  RH  028%=      5-min Rain = 0
KLBW 141625Z 29008KT 35/13 A3003 RMK A01 T03490125  RH  027%=      5-min Rain = 0
KLBW 141630Z 27007KT 35/12 A3003 RMK A01 T03470124  RH  027%=      5-min Rain = 0
KLBW 141635Z 25006KT 35/13 A3003 RMK A01 T03500127  RH  027%=      5-min Rain = 0
KLBW 141640Z 24006KT 35/13 A3003 RMK A01 T03500127  RH  027%=      5-min Rain = 0
KLBW 141645Z 24006KT 35/13 A3003 RMK A01 T03520126  RH  027%=      5-min Rain = 0
KLBW 141650Z 25006KT 35/13 A3003 RMK A01 T03500126  RH  027%=      5-min Rain = 0
KLBW 141655Z 25006KT 35/13 A3003 RMK A01 T03460127  RH  028%=      5-min Rain = 0
KLBW 141700Z 25004KT 35/13 A3003 RMK A01 T03490128  RH  027%=      5-min Rain = 0
KLBW 141705Z 24007KT 35/13 A3003 RMK A01 T03480129  RH  028%=      5-min Rain = 0
KLBW 141710Z 25007G12KT 35/13 A3003 RMK A01 T03470128  RH  028%=      5-min Rain = 0
KLBW 141715Z 25007KT 35/13 A3002 RMK A01 T03500128  RH  027%=      5-min Rain = 0
KLBW 141720Z 25007KT 36/13 A3002 RMK A01 T03560126  RH  026%=      5-min Rain = 0
KLBW 141725Z 26007KT 36/12 A3002 RMK A01 T03580124  RH  025%=      5-min Rain = 0
KLBW 141730Z 24006KT 37/13 A3002 RMK A01 T03650125  RH  025%=      5-min Rain = 0
KLBW 141735Z 23006KT 37/12 A3002 RMK A01 T03740122  RH  023%=      5-min Rain = 0
KLBW 141740Z 24007G12KT 38/12 A3002 RMK A01 T03800115  RH  021%=      5-min Rain = 0
KLBW 141745Z 23009G14KT 39/11 A3001 RMK A01 T03870106  RH  019%=      5-min Rain = 0
KLBW 141750Z 22010G16KT 39/11 A3001 RMK A01 T03900105  RH  019%=      5-min Rain = 0
KLBW 141755Z 21009G16KT 39/11 A3001 RMK A01 T03940106  RH  019%=      5-min Rain = 0
KLBW 141800Z 19009G15KT 39/10 A30 RMK A01 T03940104  RH  018%=      5-min Rain = 0
KLBW 141805Z 22008G13KT 40/11 A30 RMK A01 T03990106  RH  018%=      5-min Rain = 0
KLBW 141810Z 21008G15KT 40/11 A30 RMK A01 T04010112  RH  019%=      5-min Rain = 0
KLBW 141815Z 25008G13KT 40/11 A30 RMK A01 T04000108  RH  018%=      5-min Rain = 0
KLBW 141820Z 26010KT 39/09 A30 RMK A01 T03880092  RH  017%=      5-min Rain = 0
KLBW 141825Z 26011G16KT 39/09 A30 RMK A01 T03880093  RH  017%=      5-min Rain = 0
KLBW 141830Z 27011KT 38/09 A30 RMK A01 T03830087  RH  017%=      5-min Rain = 0
KLBW 141835Z 26011KT 39/09 A30 RMK A01 T03850090  RH  017%=      5-min Rain = 0
KLBW 141840Z 25010KT 39/09 A30 RMK A01 T03870089  RH  017%=      5-min Rain = 0
KLBW 141845Z 27009G14KT 39/08 A30 RMK A01 T03870083  RH  016%=      5-min Rain = 0
KLBW 141850Z 27008KT 39/08 A30 RMK A01 T03910081  RH  016%=      5-min Rain = 0
KLBW 141855Z 25011KT 39/08 A30 RMK A01 T03930084  RH  016%=      5-min Rain = 0
KLBW 141900Z 25010G16KT 39/08 A30 RMK A01 T03910081  RH  016%=      5-min Rain = 0
KLBW 141905Z 24008KT 39/08 A30 RMK A01 T03910080  RH  016%=      5-min Rain = 0
KLBW 141910Z 24008KT 39/08 A30 RMK A01 T03890077  RH  016%=      5-min Rain = 0
KLBW 141915Z 26009KT 39/08 A2999 RMK A01 T03900076  RH  015%=      5-min Rain = 0
KLBW 141920Z 25010G15KT 39/08 A2999 RMK A01 T03910080  RH  016%=      5-min Rain = 0
KLBW 141925Z 23008KT 40/08 A2999 RMK A01 T04000082  RH  015%=      5-min Rain = 0
KLBW 141930Z 25007G12KT 41/08 A2999 RMK A01 T04100078  RH  014%=      5-min Rain = 0
KLBW 141935Z 24008KT 40/08 A2999 RMK A01 T04030075  RH  014%=      5-min Rain = 0
KLBW 141940Z 23007KT 40/08 A2999 RMK A01 T03980077  RH  015%=      5-min Rain = 0
KLBW 141945Z 25008KT 40/08 A2998 RMK A01 T04030075  RH  014%=      5-min Rain = 0
KLBW 141950Z 24007KT 40/07 A2998 RMK A01 T03960073  RH  014%=      5-min Rain = 0
KLBW 141955Z 24006G11KT 40/07 A2998 RMK A01 T03990072  RH  014%=      5-min Rain = 0
KLBW 142000Z 25008KT 40/08 A2998 RMK A01 T03980075  RH  015%=      5-min Rain = 0
KLBW 142005Z 22008KT 40/07 A2997 RMK A01 T03950073  RH  015%=      5-min Rain = 0
KLBW 142010Z 24007KT 39/07 A2997 RMK A01 T03910069  RH  014%=      5-min Rain = 0
KLBW 142015Z 24007KT 39/07 A2997 RMK A01 T03880073  RH  015%=      5-min Rain = 0
KLBW 142020Z 23006KT 40/07 A2997 RMK A01 T03950074  RH  015%=      5-min Rain = 0
KLBW 142025Z 25004KT 40/07 A2996 RMK A01 T04010071  RH  014%=      5-min Rain = 0
KLBW 142030Z 23010KT 40/08 A2996 RMK A01 T04010075  RH  014%=      5-min Rain = 0
KLBW 142035Z 24004KT 41/07 A2996 RMK A01 T04060073  RH  014%=      5-min Rain = 0
KLBW 142040Z 20006G11KT 41/07 A2996 RMK A01 T04060067  RH  013%=      5-min Rain = 0
KLBW 142045Z 20007G12KT 41/07 A2996 RMK A01 T04080074  RH  014%=      5-min Rain = 0
KLBW 142050Z 20009KT 41/07 A2995 RMK A01 T04120068  RH  013%=      5-min Rain = 0
KLBW 142055Z 19006G12KT 41/06 A2995 RMK A01 T04080062  RH  013%=      5-min Rain = 0
KLBW 142100Z 19007KT 41/06 A2995 RMK A01 T04070062  RH  013%=      5-min Rain = 0
KLBW 142105Z 17005KT 41/06 A2995 RMK A01 T04070060  RH  013%=      5-min Rain = 0
KLBW 142110Z 19007G13KT 41/06 A2994 RMK A01 T04080058  RH  012%=      5-min Rain = 0
KLBW 142115Z 14004KT 41/07 A2994 RMK A01 T04120066  RH  013%=      5-min Rain = 0
KLBW 142120Z 13005KT 41/07 A2994 RMK A01 T04110070  RH  013%=      5-min Rain = 0
KLBW 142125Z 19006KT 41/07 A2994 RMK A01 T04140072  RH  013%=      5-min Rain = 0
KLBW 142130Z 21009G16KT 41/08 A2994 RMK A01 T04130075  RH  014%=      5-min Rain = 0
KLBW 142135Z 22010KT 41/08 A2994 RMK A01 T04110076  RH  014%=      5-min Rain = 0
KLBW 142140Z 23012G18KT 41/08 A2994 RMK A01 T04070080  RH  014%=      5-min Rain = 0
KLBW 142145Z 22009G14KT 41/08 A2993 RMK A01 T04100076  RH  014%=      5-min Rain = 0
KLBW 142150Z 26009G16KT 41/07 A2993 RMK A01 T04070073  RH  014%=      5-min Rain = 0
KLBW 142155Z 23009KT 41/08 A2993 RMK A01 T04060076  RH  014%=      5-min Rain = 0
KLBW 142200Z 25010G15KT 41/08 A2993 RMK A01 T04100078  RH  014%=      5-min Rain = 0
KLBW 142205Z 29007KT 41/08 A2993 RMK A01 T04050075  RH  014%=      5-min Rain = 0
KLBW 142210Z 25005G12KT 41/07 A2993 RMK A01 T04060073  RH  014%=      5-min Rain = 0
KLBW 142215Z 25007G12KT 40/07 A2993 RMK A01 T04040072  RH  014%=      5-min Rain = 0
KLBW 142220Z 24007G13KT 41/07 A2993 RMK A01 T04060074  RH  014%=      5-min Rain = 0
KLBW 142225Z 21009KT 41/07 A2992 RMK A01 T04080071  RH  013%=      5-min Rain = 0
KLBW 142230Z 19009G15KT 41/07 A2992 RMK A01 T04120071  RH  013%=      5-min Rain = 0
KLBW 142235Z 20008G14KT 41/07 A2993 RMK A01 T04070069  RH  013%=      5-min Rain = 0
KLBW 142240Z 22009G14KT 41/08 A2993 RMK A01 T04080075  RH  014%=      5-min Rain = 0
KLBW 142245Z 21008G13KT 40/07 A2992 RMK A01 T04040072  RH  014%=      5-min Rain = 0
KLBW 142250Z 23007KT 40/07 A2992 RMK A01 T04010073  RH  014%=      5-min Rain = 0
KLBW 142255Z 22009G14KT 40/07 A2993 RMK A01 T04020071  RH  014%=      5-min Rain = 0
KLBW 142300Z 21010KT 40/07 A2992 RMK A01 T04020073  RH  014%=      5-min Rain = 0
KLBW 142305Z 20009KT 41/07 A2992 RMK A01 T04070070  RH  013%=      5-min Rain = 0
KLBW 142310Z 20010G16KT 41/07 A2993 RMK A01 T04070072  RH  014%=      5-min Rain = 0
KLBW 142315Z 21009KT 40/07 A2993 RMK A01 T04040072  RH  014%=      5-min Rain = 0
KLBW 142320Z 19009G15KT 40/07 A2993 RMK A01 T04030072  RH  014%=      5-min Rain = 0
KLBW 142325Z 21010G15KT 40/07 A2993 RMK A01 T04040072  RH  014%=      5-min Rain = 0
KLBW 142330Z 20010G15KT 40/07 A2992 RMK A01 T04020072  RH  014%=      5-min Rain = 0
KLBW 142335Z 23009G14KT 40/08 A2993 RMK A01 T04020076  RH  014%=      5-min Rain = 0
KLBW 142340Z 22008KT 40/08 A2993 RMK A01 T04010075  RH  014%=      5-min Rain = 0
KLBW 142345Z 21008G16KT 40/07 A2993 RMK A01 T04000073  RH  014%=      5-min Rain = 0
KLBW 142350Z 19008KT 40/07 A2993 RMK A01 T03950071  RH  014%=      5-min Rain = 0
KLBW 142355Z 11007G17KT 39/08 A2995 RMK A01 T03920076  RH  015%=      5-min Rain = 0
KLBW 150000Z 06014G21KT 36/11 A2996 RMK A01 T03570112  RH  024%=      5-min Rain = 0
KLBW 150005Z 06013G19KT 35/12 A2996 RMK A01 T03450116  RH  026%=      5-min Rain = 0
KLBW 150010Z 06011G19KT 34/12 A2996 RMK A01 T03410116  RH  026%=      5-min Rain = 0
KLBW 150015Z 07011G19KT 34/11 A2996 RMK A01 T03420112  RH  026%=      5-min Rain = 0
KLBW 150020Z 09015G23KT 34/11 A2996 RMK A01 T03420109  RH  025%=      5-min Rain = 0
KLBW 150025Z 09013G18KT 34/11 A2997 RMK A01 T03400109  RH  025%=      5-min Rain = 0
KLBW 150030Z 08014G22KT 34/11 A2997 RMK A01 T03400105  RH  025%=      5-min Rain = 0
KLBW 150035Z 08013G23KT 34/10 A2998 RMK A01 T03400103  RH  024%=      5-min Rain = 0
KLBW 150040Z 08016G26KT 34/10 A2998 RMK A01 T03390097  RH  024%=      5-min Rain = 0
KLBW 150045Z 08016G24KT 34/10 A2998 RMK A01 T03380097  RH  024%=      5-min Rain = 0
KLBW 150050Z 08018G25KT 34/10 A2998 RMK A01 T03350096  RH  024%=      5-min Rain = 0
KLBW 150055Z 08017G26KT 33/10 A2998 RMK A01 T03330097  RH  024%=      5-min Rain = 0
KLBW 150100Z 08016G27KT 33/10 A2998 RMK A01 T03300098  RH  025%=      5-min Rain = 0
KLBW 150105Z 07018G29KT 33/10 A2999 RMK A01 T03280099  RH  025%=      5-min Rain = 0
KLBW 150110Z 07016G28KT 32/10 A2999 RMK A01 T03220099  RH  026%=      5-min Rain = 0
KLBW 150115Z 07021G32KT 32/10 A2999 RMK A01 T03160096  RH  027%=      5-min Rain = 0
KLBW 150120Z 07019G27KT 31/10 A2999 RMK A01 T03130095  RH  027%=      5-min Rain = 0
KLBW 150125Z 07014G24KT 31/10 A30 RMK A01 T03120097  RH  027%=      5-min Rain = 0
KLBW 150130Z 06014G21KT 31/10 A30 RMK A01 T03130096  RH  027%=      5-min Rain = 0
KLBW 150135Z 06015G21KT 31/10 A30 RMK A01 T03140096  RH  027%=      5-min Rain = 0
KLBW 150140Z 06020G29KT 31/10 A3001 RMK A01 T03110104  RH  029%=      5-min Rain = 0
KLBW 150145Z 06016G24KT 31/11 A3002 RMK A01 T03070109  RH  031%=      5-min Rain = 0
KLBW 150150Z 06010G17KT 30/11 A3002 RMK A01 T03040110  RH  031%=      5-min Rain = 0
KLBW 150155Z 07009G16KT 30/11 A3002 RMK A01 T03030111  RH  032%=      5-min Rain = 0
KLBW 150200Z 07008G14KT 30/11 A3003 RMK A01 T03030112  RH  032%=      5-min Rain = 0
KLBW 150205Z 05010G16KT 30/11 A3003 RMK A01 T03010113  RH  032%=      5-min Rain = 0
KLBW 150210Z 05012G20KT 30/11 A3004 RMK A01 T03020113  RH  032%=      5-min Rain = 0
KLBW 150215Z 05013G20KT 30/11 A3004 RMK A01 T03020111  RH  032%=      5-min Rain = 0
KLBW 150220Z 04011G16KT 30/11 A3005 RMK A01 T03020112  RH  032%=      5-min Rain = 0
KLBW 150225Z 03009G15KT 30/11 A3005 RMK A01 T03020111  RH  032%=      5-min Rain = 0
KLBW 150230Z 03013G19KT 30/11 A3006 RMK A01 T03020111  RH  032%=      5-min Rain = 0
KLBW 150235Z 02011G18KT 30/11 A3007 RMK A01 T03000112  RH  032%=      5-min Rain = 0
KLBW 150240Z 01012G17KT 30/11 A3007 RMK A01 T02980114  RH  033%=      5-min Rain = 0
KLBW 150245Z 02008KT 30/12 A3008 RMK A01 T02960116  RH  034%=      5-min Rain = 0
KLBW 150250Z 03009KT 30/12 A3008 RMK A01 T02950118  RH  035%=      5-min Rain = 0
KLBW 150255Z 04009KT 30/12 A3008 RMK A01 T02950117  RH  035%=      5-min Rain = 0
KLBW 150300Z 05008KT 30/12 A3007 RMK A01 T02950116  RH  034%=      5-min Rain = 0
KLBW 150305Z 04007KT 30/12 A3008 RMK A01 T02950115  RH  034%=      5-min Rain = 0
KLBW 150310Z 03005KT 30/12 A3009 RMK A01 T02950115  RH  034%=      5-min Rain = 0
KLBW 150315Z 04004KT 30/11 A3009 RMK A01 T02960114  RH  034%=      5-min Rain = 0
KLBW 150320Z 03004KT 30/11 A3009 RMK A01 T02960113  RH  033%=      5-min Rain = 0
KLBW 150325Z 03004KT 30/11 A3008 RMK A01 T02960112  RH  033%=      5-min Rain = 0
KLBW 150330Z 02004KT 30/11 A3008 RMK A01 T02970111  RH  033%=      5-min Rain = 0
KLBW 150335Z 03004KT 30/11 A3007 RMK A01 T02970110  RH  033%=      5-min Rain = 0
KLBW 150340Z 01004KT 30/11 A3007 RMK A01 T02970109  RH  032%=      5-min Rain = 0
KLBW 150345Z 36002KT 30/11 A3007 RMK A01 T02970109  RH  032%=      5-min Rain = 0
KLBW 150350Z 00001KT 30/11 A3007 RMK A01 T02960109  RH  032%=      5-min Rain = 0
KLBW 150355Z 35004KT 29/11 A3007 RMK A01 T02940109  RH  033%=      5-min Rain = 0
KLBW 150400Z 34004KT 30/11 A3007 RMK A01 T02950110  RH  033%=      5-min Rain = 0
KLBW 150405Z 33002KT 29/11 A3007 RMK A01 T02930111  RH  033%=      5-min Rain = 0
KLBW 150410Z 32002KT 29/11 A3006 RMK A01 T02910113  RH  034%=      5-min Rain = 0
KLBW 150415Z 35002KT 29/11 A3006 RMK A01 T02890113  RH  035%=      5-min Rain = 0
KLBW 150420Z 05002KT 29/11 A3005 RMK A01 T02880111  RH  035%=      5-min Rain = 0
KLBW 150425Z 06002KT 29/11 A3005 RMK A01 T02920111  RH  034%=      5-min Rain = 0
KLBW 150430Z 07001KT 29/12 A3005 RMK A01 T02880117  RH  036%=      5-min Rain = 0
KLBW 150435Z 15006KT 28/12 A3005 RMK A01 T02780124  RH  040%=      5-min Rain = 0
KLBW 150440Z 16007KT 28/12 A3004 RMK A01 T02780122  RH  039%=      5-min Rain = 0
KLBW 150445Z 15007KT 28/12 A3004 RMK A01 T02840120  RH  037%=      5-min Rain = 0
KLBW 150450Z 16005KT 29/12 A3004 RMK A01 T02880122  RH  037%=      5-min Rain = 0
KLBW 150455Z 21003KT 29/12 A3004 RMK A01 T02890119  RH  036%=      5-min Rain = 0

Page generated in 0.0203 seconds.